Aviation Digital Data Service (ADDS)

Output produced by METARs form (2100 UTC 23 January 2019)
found at http://www.aviationweather.gov/metar/data/
 
Forecast for: COR
Text: TAF COR LQSA 231712Z 2318/2418 VRB02KT 2000 BR SCT008 BKN035 TXM00/2318Z TNM05/2406Z
Forecast period: 1800 UTC 23 January 2019 to 1800 UTC 24 January 2019
Forecast type: FROM: standard forecast or significant change
Winds: variable direction winds at 2 MPH (2 knots; 1.0 m/s)
Visibility: 1.24 miles (2.00 km)
Ceiling: 3500 feet AGL
Clouds: scattered clouds at 800 feet AGL
broken clouds at 3500 feet AGL
Weather: BR  (mist)
Text: PROB40
Forecast period: 1800 UTC 23 January 2019 to 0500 UTC 24 January 2019
Forecast type: TEMPORARY: The following changes expected for less than half the time period
Visibility: 0.25 miles (0.40 km)
Ceiling: 200 feet AGL
Clouds: broken clouds at 200 feet AGL
Weather: FZFG  (freezing fog)
Text: TEMPO 2318/2405 0400 FZFG BKN002
Forecast period: 0500 to 1800 UTC 24 January 2019
Forecast type: TEMPORARY: The following changes expected for less than half the time period
Visibility: 0.62 miles (1.00 km)
Ceiling: 600 feet AGL
Clouds: broken clouds at 600 feet AGL
broken clouds at 2000 feet AGL
Weather: SN  (moderate snow)